Francisco Dias

Recruteur en chef - Moreirense
10 Sept 2028
Dimanche
Processus

Personnalité

Adaptabilité (6) Ambition (11) Controverse (20) Loyauté (13) Pression (14) Professionnalisme (19) Sportivité (9) Tempérament (8)

Profil

Style d'entraînement Démocratique
Diplôme Continental C
Détermination 10
Gestion des joueurs 8
Motivation 12
Discipline 8
Satisfaction professionnelle
100%
Fatigue
0%
Rôle Recruteur en chef
Salaire 28.1K p/s
Contrat 14.03.2029

Performance

Comportement Bon
Efficacité de l'entraînement
39%
Développement des joueurs
55%
Prévention des blessures
40%
Mise en place tactique
50%

Événements récents

A participé à une réunion de recrutement maintenant
A participé à une réunion de recrutement maintenant
A participé à une réunion de recrutement maintenant
A participé à une réunion de recrutement maintenant
A recommandé une cible de transfert maintenant
A recommandé une cible de transfert maintenant
A recommandé une cible de transfert 7j
A présenté un dossier au conseil 7j

Suivi en cours

168
Joueur Club Statut Capacité Confiance Observé Dernière observation Dernier vote
Leandro Dias Pacos de Ferreira Négociation 116 / 123 83% 1 28.08.2028 -
Francisco Ramos Pacos de Ferreira Rapport prêt 106 / 115 83% 1 14.08.2028 -
Trey Nyoni Rotherham United Actif 140 / 149 40% 6 01.08.2028 -
Christos Mouzakitis Hull City Actif 138 / 142 40% 5 01.08.2028 -
Luis Otávio Orlando City Actif 113 / 128 40% 1 01.08.2028 -
Miguel Figueiredo Benfica Actif 119 / 125 40% 6 24.07.2028 -
Lamine Bèye Portimonense Actif 114 / 130 40% 3 24.07.2028 -
Celías Ingenthron Platense Perdu 122 / 130 40% 1 24.07.2028 -
Musa Danjuma Umraniyespor Actif 99 / 112 40% 2 17.07.2028 -
Tobías Ramírez River Plate Actif 132 / 137 40% 1 17.07.2028 -
Ayden Heaven Portsmouth Actif 148 / 147 40% 6 10.07.2028 -
Giovanni Leoni Lincoln City Actif 143 / 147 40% 3 10.07.2028 -
Cheveyo Tsawa Club Brugge Actif 126 / 141 40% 1 10.07.2028 -
Jan Bürger Northampton Town Actif 125 / 131 40% 8 05.07.2028 -
Tyler Fletcher Rotherham United Actif 113 / 116 40% 5 18.06.2028 -
Nicolás Salinas Tondela Rapport prêt 103 / 100 83% 1 01.06.2028 -
Honest Ahanor Atalanta Actif 139 / 131 40% 5 31.05.2028 -
Kiani Inge Groningen Actif 112 / 127 40% 5 28.05.2028 -
Andrey Ivlev Nizhniy Novgorod Actif 117 / 99 40% 4 27.05.2028 -
Konta Ismaily Actif 101 / 112 40% 5 24.05.2028 -
Andrija Bulatović Chamois Niortais Actif 131 / 141 40% 8 24.05.2028 -
Andrea Cogoni Cosenza Actif 113 / 117 40% 2 22.05.2028 -
Dmytro Strilchuk Podillia Actif 81 / 98 40% 3 21.05.2028 -
Lucas Høgsberg RC Strasbourg Actif 139 / 134 40% 3 20.05.2028 -
Thijs Kraaijeveld USM Alger Actif 128 / 110 40% 4 20.05.2028 -
Nicolò Moranduzzo Renate Actif 95 / 94 40% 1 20.05.2028 -
Jorthy Mokio ADO Den Haag Actif 135 / 142 40% 4 09.05.2028 -
Simone Suppa Virtus Verona Actif 87 / 82 40% 1 07.05.2028 -
Josh Acheampong Everton Actif 141 / 142 40% 5 28.04.2028 -
Martim Cunha Porto Actif 113 / 126 40% 4 27.04.2028 -
Josh Nichols Oldham Athletic Actif 119 / 123 40% 4 20.04.2028 -
Bernardo Lima Porto Actif 112 / 106 40% 3 18.04.2028 -
Kamaldeen Atiemo Wa All Stars Actif 111 / 130 40% 2 17.04.2028 -
Daniel Banjaqui Benfica Actif 128 / 115 40% 2 11.04.2028 -
Nicolas Sport Recife Actif 110 / 103 40% 3 10.04.2028 -
Abubakar Adams Aduana Stars Actif 79 / 94 40% 1 08.04.2028 -
Olivier Leroux Mouscron Actif 100 / 118 40% 1 24.03.2028 -
Matias Siltanen Malmo FF Actif 123 / 151 40% 2 23.03.2028 -
Matvey Bardachev Zenit Actif 107 / 124 40% 1 19.03.2028 -
Melvin Vučenović Persson Atvidaberg Actif 78 / 74 40% 1 14.03.2028 -
Riquelme Thompson-Jones Accrington Stanley Actif 110 / 110 40% 1 11.03.2028 -
Yann Kitala Vizela Actif 113 / 113 42% 1 / 1m 09.02.2028 -
Francisco Machis Llaneros Actif 81 / 86 40% 1 17.01.2028 -
Dion Beljo AJ Auxerre Actif 131 / 132 66% 1 01.01.2028 Approuver
Mao Hosoya Santos Actif 134 / 135 67% 1 01.01.2028 Approuver
Oscar Schwartau Norwich City Actif 129 / 128 40% 8 26.07.2027 -
Leandro Martins Benfica Actif 92 / 99 40% 1 26.07.2027 -
Ryan Oné Sheffield United Actif 120 / 124 40% 1 26.07.2027 -
Bernardes Benfica Actif 102 / 115 40% 3 19.07.2027 -
Maren Kefas Plateau United Actif 96 / 97 40% 1 19.07.2027 -
Marezi Portsmouth Actif 122 / 114 40% 2 05.07.2027 -
Elijah Adebayo Luton Town Actif 123 / 116 40% 1 05.07.2027 -
Gabriele Bertolini Vicenza Actif 100 / 99 40% 1 23.06.2027 -
Nana Nuhu WAFA Actif 89 / 98 40% 2 14.06.2027 -
João Queirós Oliveirense Actif 110 / 97 79% 1 14.06.2027 Approuver
Rafael Camacho Sporting CP Actif 91 / 95 40% 1 31.05.2027 -
Ethan Williams Peterborough United Actif 113 / 115 40% 3 30.05.2027 -
Iseppe Nacional Actif 106 / 111 40% 1 30.05.2027 -
Olívio Tomé Benfica Actif 106 / 130 40% 2 28.05.2027 -
Bazoumana Touré Newcastle United Actif 134 / 144 40% 2 27.05.2027 -
Kirill Glebov CSKA Moscow Actif 125 / 135 40% 4 26.05.2027 -
Leo Castledine Middlesbrough Actif 132 / 129 40% 3 25.05.2027 -
Gonçalo Moreira Benfica Actif 116 / 114 40% 2 22.05.2027 -
Othmane Maamma Watford Actif 125 / 122 40% 1 22.05.2027 -
André Miranda Porto Actif 105 / 97 40% 1 20.05.2027 -
Lander Astiazarán Real Sociedad Actif 107 / 108 40% 2 19.05.2027 -
Sindre Walle Egeli Udinese Actif 130 / 132 40% 1 19.05.2027 -
Nestory Irankunda Watford Actif 125 / 136 40% 1 19.05.2027 -
Víctor Guzmán Sporting CP Actif 95 / 94 40% 3 18.05.2027 -
Romelle Donovan Brentford Actif 124 / 138 40% 1 16.05.2027 -
Eduardo Fernandes Benfica Actif 109 / 116 40% 1 11.05.2027 -
Mohamadou Kanté Crawley Town Actif 120 / 110 40% 3 10.05.2027 -
Gomolemo Kekana Maritzburg United Actif 100 / 105 40% 1 10.05.2027 -
Mateus Mané Burnley Actif 130 / 138 40% 2 09.05.2027 -
Tiago Freitas Benfica Actif 108 / 111 40% 2 08.05.2027 -
Sorriso Famalicao Actif 132 / 120 40% 4 07.05.2027 -
Fábio Carvalho Brentford Actif 140 / 135 40% 2 07.05.2027 -
Giacomo Raspadori Atalanta Actif 144 / 150 40% 4 06.05.2027 -
Nicolò Zaniolo Udinese Actif 141 / 154 40% 4 06.05.2027 -
Dale Taylor Blackpool Actif 110 / 111 40% 1 06.05.2027 -
Joe Gelhardt Hull City Actif 130 / 142 40% 6 05.05.2027 -
Ilyas Ansah Hull City Actif 132 / 130 40% 3 05.05.2027 -
Rodrigo Muniz Fulham Actif 135 / 132 40% 3 04.05.2027 -
Gustavo Silva Vitoria Guimaraes Actif 121 / 133 40% 3 03.05.2027 -
Henrique Araújo Casa Pia Actif 123 / 122 40% 4 03.05.2027 -
Thiago Brentford Actif 142 / 147 40% 3 28.04.2027 -
Jackson Muleka Konyaspor Actif 128 / 118 40% 4 26.04.2027 -
Vinícius Lopes Santa Clara Actif 127 / 123 40% 6 25.04.2027 -
Lorenzo Colombo Genoa Actif 139 / 140 40% 4 24.04.2027 -
Aune Heggebø West Bromwich Albion Actif 128 / 127 40% 2 22.04.2027 -
Lovro Zvonarek Estrela da Amadora Actif 121 / 134 40% 1 18.04.2027 -
Wandile Duba ASO Chlef Actif 114 / 87 40% 1 17.04.2027 -
Tyrese Campbell Sheffield United Actif 131 / 120 40% 5 15.04.2027 -
Sam Greenwood Bristol City Actif 120 / 113 40% 3 15.04.2027 -
Monty Batlhabane Polokwane City Actif 100 / 92 40% 1 15.04.2027 -
Daniel Awuni Aduana Stars Actif 87 / 110 40% 2 13.04.2027 -
Yanis Begraoui Estoril Praia Actif 140 / 140 40% 9 03.04.2027 -
Yousef Salech Cardiff City Actif 127 / 112 40% 3 31.03.2027 -
Tyreece Campbell Charlton Athletic Actif 118 / 108 40% 1 29.03.2027 -
Rafael Navarro Famalicao Actif 125 / 126 40% 1 26.03.2027 -
Kevin Fulham Actif 144 / 152 40% 5 22.03.2027 -
Mohamed-Ali Cho Hull City Actif 139 / 141 40% 2 22.03.2027 -
Lorougnon Gohi Académico de Viseu Actif 112 / 130 40% 1 22.03.2027 -
Jack Rudoni Coventry City Actif 131 / 137 40% 1 22.03.2027 -
Cian Ashford Cardiff City Actif 112 / 119 40% 3 20.03.2027 -
Andre Brooks Sheffield United Actif 129 / 133 40% 1 17.03.2027 -
Savinho Tottenham Actif 151 / 167 40% 6 16.03.2027 -
Sam Bell Bristol City Actif 124 / 124 40% 3 16.03.2027 -
Yeremy Pino Crystal Palace Actif 149 / 161 40% 2 16.03.2027 -
Tamble Monteiro Rio Ave Actif 120 / 116 40% 1 16.03.2027 -
Óscar Mingueza Crystal Palace Actif 149 / 158 40% 4 14.03.2027 -
Chemsdine Talbi Sunderland Actif 138 / 139 40% 5 14.03.2027 -
Derensili Sanches Fernandes Huddersfield Town Actif 129 / 114 40% 1 14.03.2027 -
Víctor Gómez Braga Actif 145 / 140 40% 5 12.03.2027 Observer
Marcelo Allende Mamelodi Sundowns Actif 141 / 135 40% 2 12.03.2027 -
Rafik Guitane Estoril Praia Actif 128 / 129 40% 3 26.02.2027 -
Juan Bezerra Zamalek Actif 111 / 111 40% 1 26.02.2027 -
Simo Maritimo Actif 125 / 121 40% 1 26.02.2027 -
Finn Azaz Southampton Actif 124 / 136 40% 6 24.02.2027 -
Matt O'Riley Brighton Actif 148 / 158 40% 2 22.02.2027 -
Mario Dorgeles Braga Actif 128 / 150 40% 3 21.02.2027 -
Amine Adli Bournemouth Actif 147 / 148 40% 1 19.02.2027 -
Bongani Zungu Ajax Cape Town Actif 128 / 119 40% 3 14.02.2027 -
Justo Giani Umraniyespor Actif 120 / 111 40% 2 11.02.2027 -
Oswin Appollis Orlando Pirates Actif 124 / 109 40% 3 07.02.2027 -
Ole Pohlmann Rio Ave Actif 118 / 135 40% 2 07.02.2027 -
Lorent Tolaj Plymouth Argyle Actif 122 / 120 40% 1 25.01.2027 -
Bradley Zwane SuperSport United Actif 123 / 119 40% 4 21.01.2027 -
Manu Pozo Torreense Actif 120 / 135 40% 2 21.01.2027 -
Sampson Dweh Mallorca Actif 133 / 134 66% 1 01.01.2027 Approuver
Yehor Yarmoliuk Brentford Actif 146 / 154 40% 1 29.12.2026 -
Roberto Fernández Braga Actif 140 / 142 40% 2 23.12.2026 Plus d'infos
Welington Southampton Actif 135 / 117 40% 1 23.12.2026 -
Igor Formiga Mirassol Actif 128 / 113 40% 1 19.12.2026 -
Lee Hyun-Ju Arouca Actif 129 / 114 40% 1 18.12.2026 -
Jordan van der Gaag Leiria Actif 121 / 124 40% 2 17.12.2026 -
Pau Víctor Braga Actif 136 / 125 40% 1 12.12.2026 -
Milan van Ewijk Coventry City Actif 138 / 143 40% 1 09.12.2026 -
Jason Knight Bristol City Actif 122 / 118 40% 2 04.12.2026 -
Wilson Isidor Sunderland Actif 138 / 149 40% 1 26.11.2026 -
Santi García Gil Vicente Actif 129 / 131 40% 1 22.11.2026 -
Ryan Sessegnon Fulham Actif 141 / 159 40% 1 18.11.2026 -
Brandon Aguilera Rio Ave Actif 111 / 127 40% 1 17.11.2026 -
Teboho Mokoena Mamelodi Sundowns Actif 123 / 116 40% 1 17.11.2026 -
Alan Lescano Argentinos Juniors Actif 120 / 142 40% 1 14.11.2026 -
Carlos Álvarez Club America Actif 134 / 153 40% 2 12.11.2026 -
Sorba Thomas Stoke City Actif 136 / 121 40% 1 12.11.2026 -
Juan Bisanz Huracán Actif 131 / 106 40% 3 09.11.2026 -
Kwadwo Baah Watford Actif 123 / 124 40% 1 08.11.2026 -
Adam Wharton Crystal Palace Actif 147 / 158 40% 1 08.11.2026 -
Alejandro Piedrahita Deportivo Pereira Actif 128 / 112 40% 1 06.11.2026 -
Pablo Rosario Porto Actif 138 / 137 40% 1 02.11.2026 -
Keane Lewis-Potter Brentford Actif 144 / 140 40% 1 02.11.2026 -
Richard Ledezma Guadalajara Actif 136 / 125 40% 1 02.11.2026 -
Marcel Ruiz Crystal Palace Actif 137 / 147 40% 1 27.10.2026 -
Alexsander Atlético Mineiro Actif 130 / 143 40% 3 25.10.2026 -
Omar Campos Cruz Azul Actif 131 / 117 40% 1 22.10.2026 -
Ezequiel Bullaude Santos Laguna Actif 127 / 128 40% 1 20.10.2026 -
Carlos Forbs Club Brugge Actif 137 / 125 40% 2 17.10.2026 Plus d'infos
Iván Angulo Orlando City Actif 122 / 120 40% 1 16.10.2026 -
Jaminton Campaz Rosario Central Actif 123 / 131 40% 2 12.10.2026 -
Aarón Molinas Defensa y Justicia Actif 132 / 115 40% 2 10.10.2026 -
Alex Luna Instituto Actif 136 / 114 40% 1 08.10.2026 -
Santiago Simón Toluca Actif 116 / 110 40% 1 07.10.2026 -
Camilo Martinez Cortulua Actif 128 / 107 40% 1 06.10.2026 -
Bosun Lawal Stoke City Actif 131 / 140 40% 1 06.10.2026 -
Alejo Cruz Juventud Actif 130 / 98 40% 1 08.09.2026 -
Juan Dinenno Pumas UNAM Actif 120 / 124 40% 1 17.08.2026 -